createdAt,value
2023-10-20T00:01:55.285Z,97834.69
2023-10-20T00:04:25.198Z,97830.94
2023-10-20T00:06:52.912Z,97828.06
2023-10-20T00:09:20.667Z,97826.63
2023-10-20T00:11:49.138Z,97825.97
2023-10-20T00:14:17.035Z,97827.28
2023-10-20T00:16:44.730Z,97823.53
2023-10-20T00:19:13.027Z,97819.53
2023-10-20T00:21:42.066Z,97818.88
2023-10-20T00:24:09.934Z,97826.19
2023-10-20T00:26:37.679Z,97818.69
2023-10-20T00:29:06.954Z,97820.19
2023-10-20T00:31:34.826Z,97782.50
2023-10-20T00:34:02.630Z,97811.22
2023-10-20T00:36:30.568Z,97810.38
2023-10-20T00:38:59.786Z,97795.59
2023-10-20T00:41:27.486Z,97797.28
2023-10-20T00:43:55.322Z,97803.91
2023-10-20T00:46:23.097Z,97795.16
2023-10-20T00:48:51.419Z,97792.44
2023-10-20T00:51:19.790Z,97779.03
2023-10-20T00:53:48.755Z,97784.97
2023-10-20T00:56:19.082Z,97783.09
2023-10-20T00:58:48.732Z,97771.41
2023-10-20T01:01:16.494Z,97762.00
2023-10-20T01:03:44.794Z,97765.53
2023-10-20T01:06:13.053Z,97753.69
2023-10-20T01:08:40.955Z,97737.66
2023-10-20T01:11:08.827Z,97728.06
2023-10-20T01:13:38.533Z,97717.63
2023-10-20T01:16:06.756Z,97721.81
2023-10-20T01:18:34.524Z,97727.66
2023-10-20T01:21:02.176Z,97723.09
2023-10-20T01:23:29.804Z,97708.72
2023-10-20T01:25:59.103Z,97702.25
2023-10-20T01:28:26.784Z,97714.72
2023-10-20T01:30:54.515Z,97708.50
2023-10-20T01:33:22.203Z,97710.38
2023-10-20T01:35:49.897Z,97711.41
2023-10-20T01:38:17.722Z,97703.94
2023-10-20T01:40:46.383Z,97692.44
2023-10-20T01:43:15.358Z,97690.78
2023-10-20T01:45:43.066Z,97681.38
2023-10-20T01:48:10.774Z,97677.19
2023-10-20T01:50:38.903Z,97680.53
2023-10-20T01:53:06.629Z,97669.69
2023-10-20T01:55:35.267Z,97669.50
2023-10-20T01:58:02.997Z,97671.19
2023-10-20T02:00:32.259Z,97663.44
2023-10-20T02:03:00.122Z,97666.78
2023-10-20T02:05:27.891Z,97661.78
2023-10-20T02:07:55.663Z,97664.09
2023-10-20T02:10:23.315Z,97654.69
2023-10-20T02:12:51.157Z,97654.44
2023-10-20T02:15:19.036Z,97644.66
2023-10-20T02:17:48.078Z,97650.69
2023-10-20T02:20:22.078Z,97645.31
2023-10-20T02:22:50.823Z,97633.66
2023-10-20T02:25:20.491Z,97635.56
2023-10-20T02:27:48.842Z,97632.00
2023-10-20T02:30:17.996Z,97625.97
2023-10-20T02:32:45.976Z,97592.59
2023-10-20T02:35:15.657Z,97618.44
2023-10-20T02:37:43.321Z,97611.78
2023-10-20T02:40:12.117Z,97605.72
2023-10-20T02:42:39.880Z,97596.38
2023-10-20T02:45:14.118Z,97586.38
2023-10-20T02:47:41.879Z,97580.50
2023-10-20T02:50:10.393Z,97577.19
2023-10-20T02:52:39.437Z,97575.97
2023-10-20T02:55:07.694Z,97572.19
2023-10-20T02:57:37.333Z,97557.59
2023-10-20T03:00:11.005Z,97559.72
2023-10-20T03:02:38.828Z,97574.69
2023-10-20T03:05:07.969Z,97499.97
2023-10-20T03:07:36.069Z,97540.75
2023-10-20T03:10:05.751Z,97531.34
2023-10-20T03:12:33.418Z,97527.19
2023-10-20T03:15:04.927Z,97517.19
2023-10-20T03:17:32.803Z,97524.28
2023-10-20T03:20:00.570Z,97519.50
2023-10-20T03:22:28.336Z,97509.47
2023-10-20T03:24:56.118Z,97505.53
2023-10-20T03:27:25.262Z,97497.00
2023-10-20T03:29:53.025Z,97487.19
2023-10-20T03:32:20.741Z,97478.84
2023-10-20T03:34:48.601Z,97450.94
2023-10-20T03:37:16.252Z,97460.72
2023-10-20T03:39:44.637Z,97462.78
2023-10-20T03:42:15.064Z,97466.34
2023-10-20T03:44:44.838Z,97472.59
2023-10-20T03:47:15.193Z,97483.63
2023-10-20T03:49:43.019Z,97475.09
2023-10-20T03:52:13.035Z,97486.34
2023-10-20T03:54:40.800Z,97473.63
2023-10-20T03:57:08.475Z,97469.47
2023-10-20T03:59:36.261Z,97448.41
2023-10-20T04:02:05.563Z,97439.44
2023-10-20T04:04:33.400Z,97454.06
2023-10-20T04:07:01.270Z,97465.94
2023-10-20T04:09:30.317Z,97463.84
2023-10-20T04:11:57.999Z,97413.00
2023-10-20T04:14:25.667Z,97396.13
2023-10-20T04:16:53.360Z,97406.34
2023-10-20T04:19:22.697Z,97406.34
2023-10-20T04:21:51.002Z,97399.88
2023-10-20T04:24:21.231Z,97388.00
2023-10-20T04:26:48.874Z,97392.59
2023-10-20T04:29:35.212Z,97401.75
2023-10-20T04:32:21.112Z,97397.78
2023-10-20T04:35:04.213Z,97378.81
2023-10-20T04:37:49.217Z,97365.69
2023-10-20T04:40:34.682Z,97384.25
2023-10-20T04:43:20.080Z,97373.81
2023-10-20T04:46:14.033Z,97375.28
2023-10-20T04:48:55.802Z,97366.13
2023-10-20T04:51:46.334Z,97364.44
2023-10-20T04:54:20.969Z,97322.34
2023-10-20T04:57:17.790Z,97290.50
2023-10-20T04:59:45.914Z,97310.91
2023-10-20T05:02:25.063Z,97302.97
2023-10-20T05:04:53.251Z,97295.91
2023-10-20T05:07:27.450Z,97294.03
2023-10-20T05:09:56.689Z,97289.00
2023-10-20T05:12:24.375Z,97291.28
2023-10-20T05:14:53.356Z,97287.13
2023-10-20T05:17:22.121Z,97269.84
2023-10-20T05:19:50.748Z,97264.44
2023-10-20T05:22:18.397Z,97249.00
2023-10-20T05:24:47.432Z,97227.78
2023-10-20T05:27:15.086Z,97247.13
2023-10-20T05:29:42.781Z,97251.09
2023-10-20T05:32:10.593Z,97246.47
2023-10-20T05:34:38.316Z,97245.00
2023-10-20T05:37:06.112Z,97240.88
2023-10-20T05:39:33.802Z,97242.28
2023-10-20T05:42:05.700Z,97240.03
2023-10-20T05:44:33.778Z,97238.53
2023-10-20T05:47:01.728Z,97236.28
2023-10-20T05:49:29.912Z,97217.53
2023-10-20T05:51:57.565Z,97226.50
2023-10-20T05:54:26.382Z,97224.38
2023-10-20T05:56:54.126Z,97218.75
2023-10-20T05:59:23.214Z,97212.72
2023-10-20T06:01:50.941Z,97216.88
2023-10-20T06:04:18.799Z,97223.78
2023-10-20T06:06:46.882Z,97229.22
2023-10-20T06:09:15.672Z,97249.22
2023-10-20T06:11:43.414Z,97239.22
2023-10-20T06:14:11.877Z,97231.50
2023-10-20T06:16:40.947Z,97226.91
2023-10-20T06:19:08.638Z,97227.75
2023-10-20T06:21:36.463Z,97229.00
2023-10-20T06:24:05.044Z,97228.16
2023-10-20T06:26:33.130Z,97214.41
2023-10-20T06:29:00.781Z,97216.91
2023-10-20T06:31:43.168Z,97223.59
2023-10-20T06:34:23.647Z,97224.63
2023-10-20T06:36:54.989Z,97211.72
2023-10-20T06:39:22.624Z,97205.06
2023-10-20T06:41:50.286Z,97197.56
2023-10-20T06:44:18.030Z,97190.03
2023-10-20T06:46:46.342Z,97191.09
2023-10-20T06:49:19.757Z,97198.38
2023-10-20T06:51:49.085Z,97195.06
2023-10-20T06:54:17.208Z,97196.09
2023-10-20T06:56:44.956Z,97189.22
2023-10-20T06:59:15.062Z,97184.03
2023-10-20T07:01:44.893Z,97185.50
2023-10-20T07:04:13.370Z,97171.75
2023-10-20T07:06:42.480Z,97164.06
2023-10-20T07:09:15.007Z,97163.03
2023-10-20T07:11:44.534Z,97178.22
2023-10-20T07:14:12.500Z,97187.59
2023-10-20T07:16:40.218Z,97188.44
2023-10-20T07:19:08.124Z,97197.19
2023-10-20T07:21:36.669Z,97190.94
2023-10-20T07:24:06.246Z,97183.84
2023-10-20T07:26:34.035Z,97169.06
2023-10-20T07:29:02.451Z,97180.31
2023-10-20T07:31:30.257Z,97180.53
2023-10-20T07:33:59.247Z,97178.03
2023-10-20T07:36:27.025Z,97162.19
2023-10-20T07:38:54.757Z,97173.84
2023-10-20T07:41:23.868Z,97163.25
2023-10-20T07:43:51.593Z,97159.69
2023-10-20T07:46:19.606Z,97162.63
2023-10-20T07:48:47.687Z,97155.75
2023-10-20T07:51:15.747Z,97088.56
2023-10-20T07:53:43.549Z,97157.00
2023-10-20T07:56:11.318Z,97158.47
2023-10-20T07:58:40.644Z,97161.78
2023-10-20T08:01:08.622Z,97159.06
2023-10-20T08:03:36.509Z,97156.78
2023-10-20T08:06:05.290Z,97149.91
2023-10-20T08:08:33.851Z,97151.78
2023-10-20T08:11:05.655Z,97154.91
2023-10-20T08:13:34.979Z,97155.75
2023-10-20T08:16:05.986Z,97154.09
2023-10-20T08:18:35.420Z,97160.75
2023-10-20T08:21:08.367Z,97155.13
2023-10-20T08:23:36.447Z,97163.63
2023-10-20T08:26:04.230Z,97154.09
2023-10-20T08:28:32.023Z,97157.84
2023-10-20T08:31:13.996Z,97158.88
2023-10-20T08:33:41.923Z,97158.22
2023-10-20T08:36:14.274Z,97150.13
2023-10-20T08:38:43.632Z,97160.53
2023-10-20T08:41:13.852Z,97167.63
2023-10-20T08:43:43.187Z,97139.72
2023-10-20T08:46:14.636Z,97172.84
2023-10-20T08:48:43.331Z,97155.13
2023-10-20T08:51:13.229Z,97158.88
2023-10-20T08:53:42.817Z,97099.41
2023-10-20T08:56:13.054Z,97172.22
2023-10-20T08:58:41.309Z,97162.84
2023-10-20T09:01:09.244Z,97155.97
2023-10-20T09:03:42.505Z,97164.50
2023-10-20T09:06:13.409Z,97164.72
2023-10-20T09:08:41.786Z,97155.13
2023-10-20T09:11:10.158Z,97168.25
2023-10-20T09:13:41.012Z,97164.50
2023-10-20T09:16:10.835Z,97162.00
2023-10-20T09:18:51.006Z,97169.72
2023-10-20T09:21:19.938Z,97180.13
2023-10-20T09:23:58.376Z,97175.53
2023-10-20T09:26:27.842Z,97170.97
2023-10-20T09:28:57.396Z,97165.56
2023-10-20T09:31:28.210Z,97163.88
2023-10-20T09:33:57.569Z,97162.66
2023-10-20T09:36:25.534Z,97165.59
2023-10-20T09:38:54.608Z,97152.06
2023-10-20T09:41:24.358Z,97159.13
2023-10-20T09:43:54.621Z,97162.22
2023-10-20T09:46:34.098Z,97173.03
2023-10-20T09:49:12.577Z,97157.84
2023-10-20T09:51:40.657Z,97154.94
2023-10-20T09:54:08.488Z,97144.53
2023-10-20T09:56:36.337Z,97141.81
2023-10-20T09:59:07.875Z,97151.19
2023-10-20T10:01:35.757Z,97159.13
2023-10-20T10:04:05.626Z,97160.56
2023-10-20T10:06:37.860Z,97154.31
2023-10-20T10:09:06.838Z,97161.19
2023-10-20T10:11:41.327Z,97168.09
2023-10-20T10:14:10.029Z,97163.06
2023-10-20T10:16:49.860Z,97166.81
2023-10-20T10:19:19.823Z,97157.47
2023-10-20T10:21:52.478Z,97173.69
2023-10-20T10:24:33.191Z,97162.88
2023-10-20T10:27:04.295Z,97153.50
2023-10-20T10:29:54.394Z,97125.66
2023-10-20T10:32:27.954Z,97145.59
2023-10-20T10:34:58.171Z,97139.78
2023-10-20T10:37:34.446Z,97124.59
2023-10-20T10:40:09.227Z,97140.19
2023-10-20T10:42:41.265Z,97070.53
2023-10-20T10:45:25.186Z,97117.50
2023-10-20T10:48:04.526Z,97119.78
2023-10-20T10:50:34.816Z,97115.63
2023-10-20T10:53:03.369Z,97106.47
2023-10-20T10:55:32.048Z,97110.63
2023-10-20T10:58:00.126Z,97114.78
2023-10-20T11:00:28.879Z,97100.44
2023-10-20T11:02:58.522Z,97100.00
2023-10-20T11:05:26.946Z,97096.47
2023-10-20T11:08:02.558Z,97091.03
2023-10-20T11:10:31.100Z,97084.78
2023-10-20T11:12:59.947Z,97089.59
2023-10-20T11:15:29.848Z,97083.13
2023-10-20T11:18:00.076Z,97093.09
2023-10-20T11:20:30.935Z,97068.84
2023-10-20T11:23:02.030Z,97090.03
2023-10-20T11:25:31.295Z,97085.66
2023-10-20T11:27:59.069Z,97075.66
2023-10-20T11:30:28.398Z,97040.97
2023-10-20T11:32:57.003Z,97068.34
2023-10-20T11:35:26.322Z,97072.94
2023-10-20T11:37:54.486Z,97052.63
2023-10-20T11:40:23.927Z,97069.00
2023-10-20T11:42:52.163Z,97061.50
2023-10-20T11:45:21.588Z,97016.63
2023-10-20T11:47:49.468Z,97049.81
2023-10-20T11:50:19.618Z,97065.63
2023-10-20T11:52:48.303Z,97061.94
2023-10-20T11:55:16.167Z,97055.28
2023-10-20T11:57:45.204Z,97045.13
2023-10-20T12:00:14.890Z,97045.50
2023-10-20T12:02:43.694Z,97025.16
2023-10-20T12:05:11.869Z,97017.25
2023-10-20T12:07:39.773Z,97009.56
2023-10-20T12:10:08.854Z,97002.88
2023-10-20T12:12:36.898Z,96989.19
2023-10-20T12:15:09.422Z,97010.38
2023-10-20T12:17:38.013Z,97014.97
2023-10-20T12:20:07.203Z,97021.03
2023-10-20T12:22:35.085Z,97011.22
2023-10-20T12:25:03.282Z,97005.59
2023-10-20T12:27:30.938Z,97005.84
2023-10-20T12:29:58.671Z,96995.81
2023-10-20T12:32:28.354Z,96995.81
2023-10-20T12:34:56.641Z,96987.09
2023-10-20T12:37:24.380Z,96989.59
2023-10-20T12:39:52.215Z,96997.69
2023-10-20T12:42:19.855Z,96995.03
2023-10-20T12:44:47.554Z,96990.66
2023-10-20T12:47:16.248Z,96992.97
2023-10-20T12:49:46.077Z,96982.34
2023-10-20T12:52:13.909Z,96972.59
2023-10-20T12:54:42.832Z,96965.72
2023-10-20T12:57:10.524Z,96965.31
2023-10-20T12:59:38.206Z,96954.91
2023-10-20T13:02:06.281Z,96970.69
2023-10-20T13:04:34.271Z,96964.47
2023-10-20T13:07:03.611Z,96964.88
2023-10-20T13:09:31.395Z,96969.66
2023-10-20T13:11:59.968Z,96968.63
2023-10-20T13:14:28.398Z,96967.81
2023-10-20T13:16:57.992Z,96982.81
2023-10-20T13:19:25.701Z,96977.16
2023-10-20T13:21:53.838Z,96979.28
2023-10-20T13:24:22.878Z,96980.72
2023-10-20T13:26:52.482Z,96977.59
2023-10-20T13:29:20.357Z,96979.91
2023-10-20T13:31:48.107Z,96983.44
2023-10-20T13:34:15.773Z,96980.53
2023-10-20T13:36:43.730Z,96979.06
2023-10-20T13:41:45.385Z,96951.66
2023-10-20T13:44:14.806Z,96964.31
2023-10-20T13:46:42.557Z,96954.53
2023-10-20T13:49:10.252Z,96952.44
2023-10-20T13:51:38.003Z,96950.81
2023-10-20T13:54:06.448Z,96951.22
2023-10-20T13:56:34.242Z,96946.00
2023-10-20T13:59:03.333Z,96947.47
2023-10-20T14:01:31.033Z,96958.31
2023-10-20T14:03:58.992Z,96960.38
2023-10-20T14:06:27.128Z,96950.81
2023-10-20T14:08:54.853Z,96954.34
2023-10-20T14:11:22.634Z,96944.38
2023-10-20T14:13:50.373Z,96949.13
2023-10-20T14:16:19.463Z,96946.00
2023-10-20T14:18:47.175Z,96953.53
2023-10-20T14:21:15.343Z,96965.34
2023-10-20T14:23:43.281Z,96963.69
2023-10-20T14:26:11.036Z,96960.78
2023-10-20T14:28:38.683Z,96973.44
2023-10-20T14:31:06.678Z,96982.38
2023-10-20T14:33:36.213Z,96987.16
2023-10-20T14:36:04.100Z,96996.53
2023-10-20T14:38:31.970Z,97007.94
2023-10-20T14:41:03.875Z,97000.06
2023-10-20T14:43:33.724Z,97007.53
2023-10-20T14:46:01.844Z,97006.09
2023-10-20T14:48:29.918Z,97006.47
2023-10-20T14:51:00.672Z,97017.09
2023-10-20T14:53:29.863Z,97017.09
2023-10-20T14:55:57.592Z,97018.53
2023-10-20T14:58:25.439Z,97028.31
2023-10-20T15:00:53.098Z,97033.09
2023-10-20T15:03:22.033Z,97043.47
2023-10-20T15:05:50.588Z,97044.09
2023-10-20T15:08:20.871Z,97036.00
2023-10-20T15:10:48.603Z,97047.84
2023-10-20T15:13:17.323Z,97056.78
2023-10-20T15:15:45.020Z,97061.53
2023-10-20T15:18:12.962Z,97044.66
2023-10-20T15:20:42.223Z,97068.75
2023-10-20T15:23:17.998Z,97062.28
2023-10-20T15:25:48.305Z,97075.34
2023-10-20T15:28:16.209Z,97082.22
2023-10-20T15:30:43.889Z,97081.59
2023-10-20T15:33:11.645Z,97085.47
2023-10-20T15:35:41.228Z,97095.63
2023-10-20T15:38:11.227Z,97092.53
2023-10-20T15:40:39.017Z,97106.19
2023-10-20T15:43:08.301Z,97109.13
2023-10-20T15:45:36.115Z,97114.97
2023-10-20T15:48:04.906Z,97105.78
2023-10-20T15:50:33.563Z,97119.56
2023-10-20T15:53:01.663Z,97124.75
2023-10-20T15:55:29.374Z,97132.88
2023-10-20T15:57:57.037Z,97133.72
2023-10-20T16:00:26.430Z,97153.94
2023-10-20T16:02:54.155Z,97144.19
2023-10-20T16:05:22.366Z,97157.75
2023-10-20T16:07:50.071Z,97166.28
2023-10-20T16:10:17.805Z,97172.31
2023-10-20T16:12:45.534Z,97183.38
2023-10-20T16:15:13.934Z,97189.44
2023-10-20T16:17:43.182Z,97197.56
2023-10-20T16:20:12.492Z,97191.94
2023-10-20T16:22:40.143Z,97204.84
2023-10-20T16:25:09.144Z,97195.50
2023-10-20T16:27:36.821Z,97196.34
2023-10-20T16:30:06.385Z,97205.53
2023-10-20T16:32:35.553Z,97207.41
2023-10-20T16:35:05.254Z,97221.34
2023-10-20T16:37:32.968Z,97182.63
2023-10-20T16:40:01.481Z,97217.81
2023-10-20T16:42:29.208Z,97227.41
2023-10-20T16:44:56.994Z,97231.78
2023-10-20T16:47:24.775Z,97236.13
2023-10-20T16:49:52.976Z,97248.00
2023-10-20T16:52:21.994Z,97249.22
2023-10-20T16:54:52.497Z,97250.31
2023-10-20T16:57:20.481Z,97258.63
2023-10-20T16:59:48.169Z,97257.16
2023-10-20T17:02:16.168Z,97262.38
2023-10-20T17:04:43.879Z,97265.88
2023-10-20T17:07:11.706Z,97270.72
2023-10-20T17:09:40.731Z,97266.34
2023-10-20T17:12:08.921Z,97266.97
2023-10-20T17:14:36.676Z,97281.53
2023-10-20T17:17:04.542Z,97281.53
2023-10-20T17:19:32.231Z,97288.00
2023-10-20T17:21:59.885Z,97290.06
2023-10-20T17:24:27.938Z,97301.31
2023-10-20T17:26:56.994Z,97293.19
2023-10-20T17:29:24.682Z,97295.47
2023-10-20T17:31:52.411Z,97306.53
2023-10-20T17:34:20.129Z,97315.69
2023-10-20T17:36:47.908Z,97312.97
2023-10-20T17:39:15.845Z,97317.31
2023-10-20T17:41:43.516Z,97311.91
2023-10-20T17:44:13.445Z,97326.91
2023-10-20T17:46:41.255Z,97316.91
2023-10-20T17:49:10.154Z,97326.69
2023-10-20T17:51:37.847Z,97328.78
2023-10-20T17:54:06.055Z,97327.94
2023-10-20T17:56:33.864Z,97330.88
2023-10-20T17:59:01.749Z,97334.84
2023-10-20T18:01:30.849Z,97339.22
2023-10-20T18:03:58.663Z,97343.78
2023-10-20T18:06:27.315Z,97348.16
2023-10-20T18:08:55.061Z,97357.75
2023-10-20T18:11:22.934Z,97349.84
2023-10-20T18:13:52.286Z,97352.13
2023-10-20T18:16:22.372Z,97363.38
2023-10-20T18:18:52.575Z,97367.53
2023-10-20T18:21:22.462Z,97371.72
2023-10-20T18:23:52.055Z,97369.63
2023-10-20T18:26:19.924Z,97369.63
2023-10-20T18:28:47.562Z,97369.63
2023-10-20T18:31:16.532Z,97368.78
2023-10-20T18:33:44.949Z,97360.88
2023-10-20T18:36:14.031Z,97370.22
2023-10-20T18:38:41.808Z,97370.44
2023-10-20T18:41:14.940Z,97373.34
2023-10-20T18:43:42.672Z,97371.25
2023-10-20T18:46:10.784Z,97373.94
2023-10-20T18:48:38.631Z,97379.38
2023-10-20T18:51:07.560Z,97387.50
2023-10-20T18:53:37.003Z,97384.34
2023-10-20T18:56:06.056Z,97379.97
2023-10-20T18:58:33.753Z,97381.25
2023-10-20T19:01:01.622Z,97386.22
2023-10-20T19:03:32.737Z,97382.47
2023-10-20T19:06:00.706Z,97392.44
2023-10-20T19:08:28.527Z,97388.88
2023-10-20T19:11:00.369Z,97398.25
2023-10-20T19:13:28.039Z,97402.84
2023-10-20T19:15:57.162Z,97406.56
2023-10-20T19:18:25.136Z,97412.00
2023-10-20T19:20:58.528Z,97409.28
2023-10-20T19:23:26.639Z,97414.25
2023-10-20T19:26:02.725Z,97412.00
2023-10-20T19:28:30.725Z,97409.44
2023-10-20T19:31:01.109Z,97422.78
2023-10-20T19:33:29.199Z,97420.66
2023-10-20T19:35:57.616Z,97428.59
2023-10-20T19:38:26.461Z,97422.50
2023-10-20T19:40:56.939Z,97432.69
2023-10-20T19:43:27.219Z,97432.50
2023-10-20T19:45:54.995Z,97433.31
2023-10-20T19:48:23.089Z,97441.44
2023-10-20T19:50:51.294Z,97440.09
2023-10-20T19:53:19.048Z,97444.03
2023-10-20T19:55:47.519Z,97447.44
2023-10-20T19:58:15.270Z,97450.34
2023-10-20T20:00:44.509Z,97461.59
2023-10-20T20:03:12.636Z,97461.78
2023-10-20T20:05:40.490Z,97458.63
2023-10-20T20:08:08.785Z,97466.75
2023-10-20T20:10:36.505Z,97469.47
2023-10-20T20:13:04.717Z,97470.50
2023-10-20T20:15:32.726Z,97471.97
2023-10-20T20:18:01.879Z,97484.00
2023-10-20T20:20:29.657Z,97479.19
2023-10-20T20:22:57.375Z,97485.63
2023-10-20T20:25:25.088Z,97481.44
2023-10-20T20:27:53.352Z,97484.78
2023-10-20T20:30:21.260Z,97470.56
2023-10-20T20:32:49.006Z,97491.03
2023-10-20T20:35:18.268Z,97499.13
2023-10-20T20:37:47.742Z,97483.56
2023-10-20T20:40:15.616Z,97496.63
2023-10-20T20:42:43.318Z,97489.97
2023-10-20T20:45:11.564Z,97498.91
2023-10-20T20:47:39.317Z,97506.63
2023-10-20T20:50:13.243Z,97508.09
2023-10-20T20:52:48.148Z,97507.84
2023-10-20T20:55:15.939Z,97516.22
2023-10-20T20:57:43.714Z,97510.66
2023-10-20T21:00:13.638Z,97519.16
2023-10-20T21:02:41.498Z,97520.59
2023-10-20T21:05:09.428Z,97526.44
2023-10-20T21:07:37.148Z,97531.00
2023-10-20T21:10:09.363Z,97522.44
2023-10-20T21:12:37.720Z,97530.75
2023-10-20T21:15:08.667Z,97530.72
2023-10-20T21:17:36.502Z,97534.28
2023-10-20T21:20:04.853Z,97534.28
2023-10-20T21:22:32.521Z,97531.56
2023-10-20T21:25:00.228Z,97538.66
2023-10-20T21:27:29.840Z,97538.41
2023-10-20T21:29:57.699Z,97541.34
2023-10-20T21:32:25.608Z,97541.94
2023-10-20T21:34:53.342Z,97540.06
2023-10-20T21:37:21.002Z,97547.91
2023-10-20T21:39:48.715Z,97533.13
2023-10-20T21:42:16.444Z,97534.03
2023-10-20T21:44:45.976Z,97531.91
2023-10-20T21:47:13.914Z,97539.56
2023-10-20T21:49:41.622Z,97534.72
2023-10-20T21:52:09.269Z,97528.75
2023-10-20T21:54:36.927Z,97531.00
2023-10-20T21:57:04.675Z,97532.88
2023-10-20T21:59:32.514Z,97530.16
2023-10-20T22:02:08.973Z,97539.91
2023-10-20T22:04:37.240Z,97537.81
2023-10-20T22:07:05.861Z,97536.31
2023-10-20T22:09:46.401Z,97530.72
2023-10-20T22:12:21.100Z,97547.31
2023-10-20T22:14:48.842Z,97542.47
2023-10-20T22:17:17.987Z,97546.41
2023-10-20T22:19:46.022Z,97546.03
2023-10-20T22:22:13.747Z,97547.25
2023-10-20T22:24:41.501Z,97552.84
2023-10-20T22:27:09.222Z,97516.81
2023-10-20T22:29:37.509Z,97557.84
2023-10-20T22:32:06.281Z,97560.38
2023-10-20T22:34:35.450Z,97558.88
2023-10-20T22:37:04.528Z,97564.94
2023-10-20T22:39:32.292Z,97566.34
2023-10-20T22:42:01.259Z,97572.41
2023-10-20T22:44:29.586Z,97572.59
2023-10-20T22:46:57.311Z,97569.88
2023-10-20T22:49:25.774Z,97569.06
2023-10-20T22:51:54.873Z,97565.03
2023-10-20T22:54:22.592Z,97575.03
2023-10-20T22:56:50.309Z,97574.94
2023-10-20T22:59:18.052Z,97577.66
2023-10-20T23:01:45.849Z,97572.38
2023-10-20T23:04:16.361Z,97576.16
2023-10-20T23:06:45.986Z,97583.16
2023-10-20T23:09:15.067Z,97579.63
2023-10-20T23:11:42.892Z,97584.91
2023-10-20T23:14:10.655Z,97579.25
2023-10-20T23:16:38.478Z,97589.22
2023-10-20T23:19:06.667Z,97599.84
2023-10-20T23:21:34.450Z,97599.44
2023-10-20T23:24:03.433Z,97593.31
2023-10-20T23:26:32.585Z,97605.88
2023-10-20T23:29:00.263Z,97602.69
2023-10-20T23:31:28.463Z,97603.91
2023-10-20T23:33:56.867Z,97607.91
2023-10-20T23:36:24.534Z,97606.22
2023-10-20T23:38:52.272Z,97603.97
2023-10-20T23:41:19.931Z,97599.78
2023-10-20T23:43:48.955Z,97603.88
2023-10-20T23:46:16.647Z,97604.50
2023-10-20T23:48:44.564Z,97606.13
2023-10-20T23:51:12.337Z,97606.50
2023-10-20T23:53:40.088Z,97611.25
2023-10-20T23:56:08.170Z,97609.00
2023-10-20T23:58:35.883Z,97612.47
